createdAt,value
2022-10-14T00:00:49.157Z,236.27
2022-10-14T00:10:53.891Z,235.30
2022-10-14T00:20:57.490Z,229.27
2022-10-14T00:31:03.316Z,241.33
2022-10-14T00:41:07.561Z,228.30
2022-10-14T00:51:15.170Z,226.47
2022-10-14T01:01:18.557Z,234.47
2022-10-14T01:11:32.604Z,235.70
2022-10-14T01:21:43.584Z,232.00
2022-10-14T01:32:00.394Z,233.53
2022-10-14T01:42:09.820Z,228.20
2022-10-14T01:52:20.188Z,226.77
2022-10-14T02:02:24.671Z,231.87
2022-10-14T02:12:39.110Z,231.93
2022-10-14T02:22:46.590Z,226.07
2022-10-14T02:32:52.647Z,228.57
2022-10-14T02:42:58.190Z,226.90
2022-10-14T02:53:03.570Z,227.90
2022-10-14T03:03:06.992Z,234.13
2022-10-14T03:13:11.742Z,227.37
2022-10-14T03:23:19.588Z,229.97
2022-10-14T03:33:29.814Z,230.10
2022-10-14T03:43:49.435Z,229.33
2022-10-14T03:53:54.893Z,227.70
2022-10-14T04:04:04.103Z,236.30
2022-10-14T04:14:10.742Z,226.77
2022-10-14T04:24:22.307Z,233.07
2022-10-14T04:34:35.982Z,232.80
2022-10-14T04:44:39.477Z,227.13
2022-10-14T04:54:44.428Z,227.90
2022-10-14T05:04:47.724Z,239.43
2022-10-14T05:14:53.114Z,232.77
2022-10-14T05:25:03.210Z,244.00
2022-10-14T05:35:09.470Z,238.70
2022-10-14T05:45:16.137Z,238.63
2022-10-14T05:55:27.786Z,245.20
2022-10-14T06:05:38.439Z,240.07
2022-10-14T06:15:43.319Z,233.70
2022-10-14T06:25:47.431Z,233.23
2022-10-14T06:35:52.019Z,247.40
2022-10-14T06:45:58.404Z,232.63
2022-10-14T06:56:06.429Z,251.70
2022-10-14T07:06:10.397Z,236.63
2022-10-14T07:16:15.078Z,247.93
2022-10-14T07:26:18.625Z,254.00
2022-10-14T07:36:23.392Z,247.83
2022-10-14T07:46:32.017Z,248.10
2022-10-14T07:56:37.081Z,250.80
2022-10-14T08:06:40.434Z,251.00
2022-10-14T08:16:45.263Z,258.20
2022-10-14T08:26:54.476Z,261.50
2022-10-14T08:37:00.315Z,268.10
2022-10-14T08:47:07.162Z,268.70
2022-10-14T08:57:18.062Z,262.80
2022-10-14T09:07:22.257Z,261.33
2022-10-14T09:17:35.395Z,251.67
2022-10-14T09:27:41.318Z,243.87
2022-10-14T09:37:45.913Z,240.77
2022-10-14T09:47:56.375Z,252.30
2022-10-14T09:58:09.456Z,246.07
2022-10-14T10:08:21.876Z,236.30
2022-10-14T10:18:26.792Z,241.00
2022-10-14T10:28:32.141Z,233.47
2022-10-14T10:38:49.736Z,255.70
2022-10-14T10:49:03.753Z,238.37
2022-10-14T10:59:33.649Z,239.80
2022-10-14T11:10:02.346Z,230.13
2022-10-14T11:20:22.792Z,224.73
2022-10-14T11:30:38.176Z,232.83
2022-10-14T11:40:54.911Z,226.27
2022-10-14T11:51:12.559Z,223.93
2022-10-14T12:01:20.527Z,228.87
2022-10-14T12:11:31.729Z,225.77
2022-10-14T12:21:49.716Z,214.50
2022-10-14T12:32:22.050Z,213.07
2022-10-14T12:42:27.000Z,213.63
2022-10-14T12:52:33.714Z,220.73
2022-10-14T13:02:45.605Z,235.60
2022-10-14T13:12:48.902Z,238.37
2022-10-14T13:22:54.317Z,227.37
2022-10-14T13:33:01.831Z,225.17
2022-10-14T13:43:17.694Z,229.07
2022-10-14T13:53:23.915Z,221.40
2022-10-14T14:03:33.305Z,227.70
2022-10-14T14:13:54.474Z,232.33
2022-10-14T14:24:02.845Z,217.07
2022-10-14T14:34:06.714Z,229.37
2022-10-14T14:44:25.219Z,222.43
2022-10-14T14:54:30.019Z,232.37
2022-10-14T15:04:36.275Z,229.23
2022-10-14T15:14:48.240Z,231.00
2022-10-14T15:25:12.066Z,229.30
2022-10-14T15:35:17.437Z,233.23
2022-10-14T15:45:22.098Z,224.47
2022-10-14T15:55:28.018Z,224.83
2022-10-14T16:05:32.699Z,226.60
2022-10-14T16:15:42.516Z,229.33
2022-10-14T16:25:50.130Z,224.17
2022-10-14T16:35:56.819Z,231.33
2022-10-14T16:46:03.731Z,241.00
2022-10-14T16:56:26.872Z,246.60
2022-10-14T17:06:32.722Z,243.37
2022-10-14T17:16:36.161Z,230.80
2022-10-14T17:26:40.773Z,243.50
2022-10-14T17:36:43.993Z,233.63
2022-10-14T17:46:48.805Z,243.13
2022-10-14T17:56:52.096Z,227.87
2022-10-14T18:06:57.036Z,236.27
2022-10-14T18:17:00.358Z,231.03
2022-10-14T18:27:05.409Z,224.53
2022-10-14T18:37:10.737Z,234.63
2022-10-14T18:47:15.407Z,242.13
2022-10-14T18:57:18.716Z,240.67
2022-10-14T19:07:23.408Z,232.87
2022-10-14T19:17:26.838Z,238.80
2022-10-14T19:27:32.140Z,240.90
2022-10-14T19:37:35.467Z,232.40
2022-10-14T19:47:40.130Z,246.43
2022-10-14T19:57:43.378Z,243.43
2022-10-14T20:07:48.483Z,241.63
2022-10-14T20:17:51.950Z,231.87
2022-10-14T20:27:57.149Z,234.20
2022-10-14T20:38:00.660Z,233.97
2022-10-14T20:48:05.746Z,234.33
2022-10-14T20:58:09.290Z,236.07
2022-10-14T21:08:13.948Z,238.37
2022-10-14T21:18:17.271Z,235.90
2022-10-14T21:28:21.873Z,240.00
2022-10-14T21:38:25.227Z,239.50
2022-10-14T21:48:29.929Z,230.50
2022-10-14T21:58:33.267Z,228.07
2022-10-14T22:08:40.839Z,232.57
2022-10-14T22:18:46.718Z,229.83
2022-10-14T22:28:51.788Z,233.13
2022-10-14T22:38:56.310Z,223.13
2022-10-14T22:49:02.108Z,226.67
2022-10-14T22:59:08.333Z,227.57
2022-10-14T23:09:12.939Z,224.13
2022-10-14T23:19:16.318Z,225.07
2022-10-14T23:29:21.064Z,230.27
2022-10-14T23:39:24.296Z,223.07
2022-10-14T23:49:28.871Z,225.13
2022-10-14T23:59:32.079Z,221.30
